sensor_id;sensor_type;location;lat;lon;timestamp;temperature;humidity
39899;DHT22;25571;47.876;10.642;2023-05-10T00:00:43;13.90;99.90
39899;DHT22;25571;47.876;10.642;2023-05-10T00:03:09;13.90;99.90
39899;DHT22;25571;47.876;10.642;2023-05-10T00:05:35;13.80;99.90
39899;DHT22;25571;47.876;10.642;2023-05-10T00:08:00;13.90;99.90
39899;DHT22;25571;47.876;10.642;2023-05-10T00:10:26;13.90;99.90
39899;DHT22;25571;47.876;10.642;2023-05-10T00:12:51;13.90;99.90
39899;DHT22;25571;47.876;10.642;2023-05-10T00:15:17;13.90;99.90
39899;DHT22;25571;47.876;10.642;2023-05-10T00:17:42;13.80;99.90
39899;DHT22;25571;47.876;10.642;2023-05-10T00:20:08;13.70;99.90
39899;DHT22;25571;47.876;10.642;2023-05-10T00:22:34;13.70;99.90
39899;DHT22;25571;47.876;10.642;2023-05-10T00:25:00;13.70;99.90
39899;DHT22;25571;47.876;10.642;2023-05-10T00:27:26;13.70;99.90
39899;DHT22;25571;47.876;10.642;2023-05-10T00:29:52;13.70;99.90
39899;DHT22;25571;47.876;10.642;2023-05-10T00:32:17;13.60;99.90
39899;DHT22;25571;47.876;10.642;2023-05-10T00:34:43;13.70;99.90
39899;DHT22;25571;47.876;10.642;2023-05-10T00:37:08;13.70;99.90
39899;DHT22;25571;47.876;10.642;2023-05-10T00:39:34;13.70;99.90
39899;DHT22;25571;47.876;10.642;2023-05-10T00:41:59;13.70;99.90
39899;DHT22;25571;47.876;10.642;2023-05-10T00:44:25;13.70;99.90
39899;DHT22;25571;47.876;10.642;2023-05-10T00:46:51;13.70;99.90
39899;DHT22;25571;47.876;10.642;2023-05-10T00:49:17;13.70;99.90
39899;DHT22;25571;47.876;10.642;2023-05-10T00:51:43;13.60;99.90
39899;DHT22;25571;47.876;10.642;2023-05-10T00:54:14;13.70;99.90
39899;DHT22;25571;47.876;10.642;2023-05-10T00:56:40;13.50;99.90
39899;DHT22;25571;47.876;10.642;2023-05-10T00:59:09;13.60;99.90
39899;DHT22;25571;47.876;10.642;2023-05-10T01:01:36;13.60;99.90
39899;DHT22;25571;47.876;10.642;2023-05-10T01:04:02;13.50;99.90
39899;DHT22;25571;47.876;10.642;2023-05-10T01:06:28;13.60;99.90
39899;DHT22;25571;47.876;10.642;2023-05-10T01:08:54;13.60;99.90
39899;DHT22;25571;47.876;10.642;2023-05-10T01:11:21;13.60;99.90
39899;DHT22;25571;47.876;10.642;2023-05-10T01:13:52;13.60;99.90
39899;DHT22;25571;47.876;10.642;2023-05-10T01:16:20;13.60;99.90
39899;DHT22;25571;47.876;10.642;2023-05-10T01:18:45;13.60;99.90
39899;DHT22;25571;47.876;10.642;2023-05-10T01:35:10;13.60;99.90
39899;DHT22;25571;47.876;10.642;2023-05-10T01:40:37;13.50;99.90
39899;DHT22;25571;47.876;10.642;2023-05-10T01:43:10;13.50;99.90
39899;DHT22;25571;47.876;10.642;2023-05-10T01:45:47;13.40;99.90
39899;DHT22;25571;47.876;10.642;2023-05-10T01:48:16;13.50;99.90
39899;DHT22;25571;47.876;10.642;2023-05-10T01:50:45;13.50;99.90
39899;DHT22;25571;47.876;10.642;2023-05-10T01:53:13;13.50;99.90
39899;DHT22;25571;47.876;10.642;2023-05-10T01:55:50;13.50;99.90
39899;DHT22;25571;47.876;10.642;2023-05-10T01:58:27;13.50;99.90
39899;DHT22;25571;47.876;10.642;2023-05-10T02:00:53;13.40;99.90
39899;DHT22;25571;47.876;10.642;2023-05-10T02:03:24;13.40;99.90
39899;DHT22;25571;47.876;10.642;2023-05-10T02:05:50;13.40;99.90
39899;DHT22;25571;47.876;10.642;2023-05-10T02:08:17;13.30;99.90
39899;DHT22;25571;47.876;10.642;2023-05-10T02:10:45;13.30;99.90
39899;DHT22;25571;47.876;10.642;2023-05-10T02:13:12;13.30;99.90
39899;DHT22;25571;47.876;10.642;2023-05-10T02:15:40;13.30;99.90
39899;DHT22;25571;47.876;10.642;2023-05-10T02:18:08;13.20;99.90
39899;DHT22;25571;47.876;10.642;2023-05-10T02:20:35;13.20;99.90
39899;DHT22;25571;47.876;10.642;2023-05-10T02:23:02;13.20;99.90
39899;DHT22;25571;47.876;10.642;2023-05-10T02:25:29;13.10;99.90
39899;DHT22;25571;47.876;10.642;2023-05-10T02:27:57;13.10;99.90
39899;DHT22;25571;47.876;10.642;2023-05-10T02:30:23;13.10;99.90
39899;DHT22;25571;47.876;10.642;2023-05-10T02:32:50;13.10;99.90
39899;DHT22;25571;47.876;10.642;2023-05-10T02:35:17;13.10;99.90
39899;DHT22;25571;47.876;10.642;2023-05-10T02:37:43;13.20;99.90
39899;DHT22;25571;47.876;10.642;2023-05-10T02:40:11;13.10;99.90
39899;DHT22;25571;47.876;10.642;2023-05-10T02:42:38;13.10;99.90
39899;DHT22;25571;47.876;10.642;2023-05-10T02:45:10;13.10;99.90
39899;DHT22;25571;47.876;10.642;2023-05-10T02:47:36;13.10;99.90
39899;DHT22;25571;47.876;10.642;2023-05-10T02:50:02;13.10;99.90
39899;DHT22;25571;47.876;10.642;2023-05-10T02:52:33;13.00;99.90
39899;DHT22;25571;47.876;10.642;2023-05-10T02:55:02;13.10;99.90
39899;DHT22;25571;47.876;10.642;2023-05-10T02:57:33;13.10;99.90
39899;DHT22;25571;47.876;10.642;2023-05-10T02:59:59;13.00;99.90
39899;DHT22;25571;47.876;10.642;2023-05-10T03:02:25;13.00;99.90
39899;DHT22;25571;47.876;10.642;2023-05-10T03:04:51;13.10;99.90
39899;DHT22;25571;47.876;10.642;2023-05-10T03:07:17;13.10;99.90
39899;DHT22;25571;47.876;10.642;2023-05-10T03:09:44;13.10;99.90
39899;DHT22;25571;47.876;10.642;2023-05-10T03:13:01;13.00;99.90
39899;DHT22;25571;47.876;10.642;2023-05-10T03:20:24;13.00;99.90
39899;DHT22;25571;47.876;10.642;2023-05-10T03:23:23;13.00;99.90
39899;DHT22;25571;47.876;10.642;2023-05-10T03:25:48;13.00;99.90
39899;DHT22;25571;47.876;10.642;2023-05-10T03:28:15;13.00;99.90
39899;DHT22;25571;47.876;10.642;2023-05-10T03:30:42;13.00;99.90
39899;DHT22;25571;47.876;10.642;2023-05-10T03:33:08;13.00;99.90
39899;DHT22;25571;47.876;10.642;2023-05-10T03:35:34;13.00;99.90
39899;DHT22;25571;47.876;10.642;2023-05-10T03:38:00;13.00;99.90
39899;DHT22;25571;47.876;10.642;2023-05-10T03:40:26;13.00;99.90
39899;DHT22;25571;47.876;10.642;2023-05-10T03:42:54;13.00;99.90
39899;DHT22;25571;47.876;10.642;2023-05-10T03:45:20;13.10;99.90
39899;DHT22;25571;47.876;10.642;2023-05-10T03:47:46;12.90;99.90
39899;DHT22;25571;47.876;10.642;2023-05-10T03:50:11;13.00;99.90
39899;DHT22;25571;47.876;10.642;2023-05-10T03:52:37;12.90;99.90
39899;DHT22;25571;47.876;10.642;2023-05-10T03:55:05;13.00;99.90
39899;DHT22;25571;47.876;10.642;2023-05-10T03:57:31;13.00;99.90
39899;DHT22;25571;47.876;10.642;2023-05-10T03:59:56;13.00;99.90
39899;DHT22;25571;47.876;10.642;2023-05-10T04:02:22;12.90;99.90
39899;DHT22;25571;47.876;10.642;2023-05-10T04:04:47;12.90;99.90
39899;DHT22;25571;47.876;10.642;2023-05-10T04:07:13;12.90;99.90
39899;DHT22;25571;47.876;10.642;2023-05-10T04:09:39;12.90;99.90
39899;DHT22;25571;47.876;10.642;2023-05-10T04:12:05;12.80;99.90
39899;DHT22;25571;47.876;10.642;2023-05-10T04:14:31;12.80;99.90
39899;DHT22;25571;47.876;10.642;2023-05-10T04:16:56;12.80;99.90
39899;DHT22;25571;47.876;10.642;2023-05-10T04:19:22;12.90;99.90
39899;DHT22;25571;47.876;10.642;2023-05-10T04:21:47;12.90;99.90
39899;DHT22;25571;47.876;10.642;2023-05-10T04:24:13;12.90;99.90
39899;DHT22;25571;47.876;10.642;2023-05-10T04:26:39;12.90;99.90
39899;DHT22;25571;47.876;10.642;2023-05-10T04:29:04;12.90;99.90
39899;DHT22;25571;47.876;10.642;2023-05-10T04:31:30;12.90;99.90
39899;DHT22;25571;47.876;10.642;2023-05-10T04:33:56;12.90;99.90
39899;DHT22;25571;47.876;10.642;2023-05-10T04:36:21;12.90;99.90
39899;DHT22;25571;47.876;10.642;2023-05-10T04:38:47;12.90;99.90
39899;DHT22;25571;47.876;10.642;2023-05-10T04:41:12;12.90;99.90
39899;DHT22;25571;47.876;10.642;2023-05-10T04:43:38;13.00;99.90
39899;DHT22;25571;47.876;10.642;2023-05-10T04:46:04;13.00;99.90
39899;DHT22;25571;47.876;10.642;2023-05-10T04:48:30;13.00;99.90
39899;DHT22;25571;47.876;10.642;2023-05-10T04:50:56;12.90;99.90
39899;DHT22;25571;47.876;10.642;2023-05-10T04:53:22;13.00;99.90
39899;DHT22;25571;47.876;10.642;2023-05-10T04:55:47;13.00;99.90
39899;DHT22;25571;47.876;10.642;2023-05-10T04:58:13;13.00;99.90
39899;DHT22;25571;47.876;10.642;2023-05-10T05:00:39;13.10;99.90
39899;DHT22;25571;47.876;10.642;2023-05-10T05:03:04;13.10;99.90
39899;DHT22;25571;47.876;10.642;2023-05-10T05:05:30;13.00;99.90
39899;DHT22;25571;47.876;10.642;2023-05-10T05:07:56;13.10;99.90
39899;DHT22;25571;47.876;10.642;2023-05-10T05:10:22;13.10;99.90
39899;DHT22;25571;47.876;10.642;2023-05-10T05:12:47;13.10;99.90
39899;DHT22;25571;47.876;10.642;2023-05-10T05:15:13;13.10;99.90
39899;DHT22;25571;47.876;10.642;2023-05-10T05:17:38;13.10;99.90
39899;DHT22;25571;47.876;10.642;2023-05-10T05:20:04;13.10;99.90
39899;DHT22;25571;47.876;10.642;2023-05-10T05:22:30;13.10;99.90
39899;DHT22;25571;47.876;10.642;2023-05-10T05:24:57;13.10;99.90
39899;DHT22;25571;47.876;10.642;2023-05-10T05:27:24;13.10;99.90
39899;DHT22;25571;47.876;10.642;2023-05-10T05:29:57;13.20;99.90
39899;DHT22;25571;47.876;10.642;2023-05-10T05:32:23;13.30;99.90
39899;DHT22;25571;47.876;10.642;2023-05-10T05:34:49;13.30;99.90
39899;DHT22;25571;47.876;10.642;2023-05-10T05:37:18;13.30;99.90
39899;DHT22;25571;47.876;10.642;2023-05-10T05:39:44;13.30;99.90
39899;DHT22;25571;47.876;10.642;2023-05-10T05:42:11;13.40;99.90
39899;DHT22;25571;47.876;10.642;2023-05-10T05:44:37;13.30;99.90
39899;DHT22;25571;47.876;10.642;2023-05-10T05:47:03;13.40;99.90
39899;DHT22;25571;47.876;10.642;2023-05-10T05:49:28;13.40;99.90
39899;DHT22;25571;47.876;10.642;2023-05-10T05:51:54;13.30;99.90
39899;DHT22;25571;47.876;10.642;2023-05-10T05:54:20;13.40;99.90
39899;DHT22;25571;47.876;10.642;2023-05-10T05:56:45;13.50;99.90
39899;DHT22;25571;47.876;10.642;2023-05-10T05:59:11;13.50;99.90
39899;DHT22;25571;47.876;10.642;2023-05-10T06:01:37;13.50;99.90
39899;DHT22;25571;47.876;10.642;2023-05-10T06:04:02;13.50;99.90
39899;DHT22;25571;47.876;10.642;2023-05-10T06:06:28;13.40;99.90
39899;DHT22;25571;47.876;10.642;2023-05-10T06:08:54;13.60;99.90
39899;DHT22;25571;47.876;10.642;2023-05-10T06:11:20;13.60;99.90
39899;DHT22;25571;47.876;10.642;2023-05-10T06:13:46;13.80;99.90
39899;DHT22;25571;47.876;10.642;2023-05-10T06:16:12;13.80;99.90
39899;DHT22;25571;47.876;10.642;2023-05-10T06:18:38;13.80;99.90
39899;DHT22;25571;47.876;10.642;2023-05-10T06:21:04;13.90;99.90
39899;DHT22;25571;47.876;10.642;2023-05-10T06:23:30;14.00;99.90
39899;DHT22;25571;47.876;10.642;2023-05-10T06:25:55;14.00;99.90
39899;DHT22;25571;47.876;10.642;2023-05-10T06:28:21;14.00;99.90
39899;DHT22;25571;47.876;10.642;2023-05-10T06:30:47;14.10;99.90
39899;DHT22;25571;47.876;10.642;2023-05-10T06:33:13;14.10;99.90
39899;DHT22;25571;47.876;10.642;2023-05-10T06:35:38;14.10;99.90
39899;DHT22;25571;47.876;10.642;2023-05-10T06:38:04;14.00;99.90
39899;DHT22;25571;47.876;10.642;2023-05-10T06:40:30;14.10;99.90
39899;DHT22;25571;47.876;10.642;2023-05-10T06:42:55;14.10;99.90
39899;DHT22;25571;47.876;10.642;2023-05-10T06:45:21;14.00;99.90
39899;DHT22;25571;47.876;10.642;2023-05-10T06:47:46;14.00;99.90
39899;DHT22;25571;47.876;10.642;2023-05-10T06:50:12;14.00;99.90
39899;DHT22;25571;47.876;10.642;2023-05-10T06:52:38;14.00;99.90
39899;DHT22;25571;47.876;10.642;2023-05-10T06:55:04;14.00;99.90
39899;DHT22;25571;47.876;10.642;2023-05-10T06:57:30;13.90;99.90
39899;DHT22;25571;47.876;10.642;2023-05-10T06:59:56;13.90;99.90
39899;DHT22;25571;47.876;10.642;2023-05-10T07:02:22;13.90;99.90
39899;DHT22;25571;47.876;10.642;2023-05-10T07:04:48;13.90;99.90
39899;DHT22;25571;47.876;10.642;2023-05-10T07:07:14;13.90;99.90
39899;DHT22;25571;47.876;10.642;2023-05-10T07:09:40;13.80;99.90
39899;DHT22;25571;47.876;10.642;2023-05-10T07:12:05;13.90;99.90
39899;DHT22;25571;47.876;10.642;2023-05-10T07:14:31;13.90;99.90
39899;DHT22;25571;47.876;10.642;2023-05-10T07:16:57;13.80;99.90
39899;DHT22;25571;47.876;10.642;2023-05-10T07:19:22;13.90;99.90
39899;DHT22;25571;47.876;10.642;2023-05-10T07:21:48;14.00;99.90
39899;DHT22;25571;47.876;10.642;2023-05-10T07:24:14;14.10;99.90
39899;DHT22;25571;47.876;10.642;2023-05-10T07:26:39;14.20;99.90
39899;DHT22;25571;47.876;10.642;2023-05-10T07:29:05;14.40;99.90
39899;DHT22;25571;47.876;10.642;2023-05-10T07:31:30;14.50;99.90
39899;DHT22;25571;47.876;10.642;2023-05-10T07:33:56;14.60;99.90
39899;DHT22;25571;47.876;10.642;2023-05-10T07:36:21;14.70;99.90
39899;DHT22;25571;47.876;10.642;2023-05-10T07:38:47;14.80;99.90
39899;DHT22;25571;47.876;10.642;2023-05-10T07:41:13;15.00;99.90
39899;DHT22;25571;47.876;10.642;2023-05-10T07:43:38;15.10;99.90
39899;DHT22;25571;47.876;10.642;2023-05-10T07:46:05;15.10;99.90
39899;DHT22;25571;47.876;10.642;2023-05-10T07:48:30;15.10;99.90
39899;DHT22;25571;47.876;10.642;2023-05-10T07:50:56;15.20;99.90
39899;DHT22;25571;47.876;10.642;2023-05-10T07:53:22;15.20;99.90
39899;DHT22;25571;47.876;10.642;2023-05-10T07:55:57;15.20;99.90
39899;DHT22;25571;47.876;10.642;2023-05-10T07:58:23;15.40;99.90
39899;DHT22;25571;47.876;10.642;2023-05-10T08:00:49;15.60;99.90
39899;DHT22;25571;47.876;10.642;2023-05-10T08:03:14;15.80;99.90
39899;DHT22;25571;47.876;10.642;2023-05-10T08:05:40;16.20;99.90
39899;DHT22;25571;47.876;10.642;2023-05-10T08:08:06;16.40;99.90
39899;DHT22;25571;47.876;10.642;2023-05-10T08:10:31;16.20;99.90
39899;DHT22;25571;47.876;10.642;2023-05-10T08:12:57;15.90;99.90
39899;DHT22;25571;47.876;10.642;2023-05-10T08:15:24;15.80;99.90
39899;DHT22;25571;47.876;10.642;2023-05-10T08:17:51;15.70;99.90
39899;DHT22;25571;47.876;10.642;2023-05-10T08:20:16;15.60;99.90
39899;DHT22;25571;47.876;10.642;2023-05-10T08:22:45;15.40;99.90
39899;DHT22;25571;47.876;10.642;2023-05-10T08:25:10;15.50;99.90
39899;DHT22;25571;47.876;10.642;2023-05-10T08:27:36;15.40;99.90
39899;DHT22;25571;47.876;10.642;2023-05-10T08:30:02;15.40;99.90
39899;DHT22;25571;47.876;10.642;2023-05-10T08:32:27;15.20;99.90
39899;DHT22;25571;47.876;10.642;2023-05-10T08:34:53;15.20;99.90
39899;DHT22;25571;47.876;10.642;2023-05-10T08:37:18;15.20;99.90
39899;DHT22;25571;47.876;10.642;2023-05-10T08:39:44;15.10;99.90
39899;DHT22;25571;47.876;10.642;2023-05-10T08:42:16;15.00;99.90
39899;DHT22;25571;47.876;10.642;2023-05-10T08:44:45;14.90;99.90
39899;DHT22;25571;47.876;10.642;2023-05-10T08:47:16;15.00;99.90
39899;DHT22;25571;47.876;10.642;2023-05-10T08:49:44;15.10;99.90
39899;DHT22;25571;47.876;10.642;2023-05-10T08:52:14;15.00;99.90
39899;DHT22;25571;47.876;10.642;2023-05-10T08:54:41;15.00;99.90
39899;DHT22;25571;47.876;10.642;2023-05-10T08:57:07;15.00;99.90
39899;DHT22;25571;47.876;10.642;2023-05-10T08:59:33;15.10;99.90
39899;DHT22;25571;47.876;10.642;2023-05-10T09:01:59;15.10;99.90
39899;DHT22;25571;47.876;10.642;2023-05-10T09:04:25;15.20;99.90
39899;DHT22;25571;47.876;10.642;2023-05-10T09:06:51;15.30;99.90
39899;DHT22;25571;47.876;10.642;2023-05-10T09:09:17;15.20;99.90
39899;DHT22;25571;47.876;10.642;2023-05-10T09:11:43;15.10;99.90
39899;DHT22;25571;47.876;10.642;2023-05-10T09:14:10;15.10;99.90
39899;DHT22;25571;47.876;10.642;2023-05-10T09:16:36;15.40;99.90
39899;DHT22;25571;47.876;10.642;2023-05-10T09:19:01;15.50;99.90
39899;DHT22;25571;47.876;10.642;2023-05-10T09:21:28;15.50;99.90
39899;DHT22;25571;47.876;10.642;2023-05-10T09:23:53;15.50;99.90
39899;DHT22;25571;47.876;10.642;2023-05-10T09:26:23;15.60;99.90
39899;DHT22;25571;47.876;10.642;2023-05-10T09:28:57;15.40;99.90
39899;DHT22;25571;47.876;10.642;2023-05-10T09:31:23;15.20;99.90
39899;DHT22;25571;47.876;10.642;2023-05-10T09:33:51;15.10;99.90
39899;DHT22;25571;47.876;10.642;2023-05-10T09:36:17;15.00;99.90
39899;DHT22;25571;47.876;10.642;2023-05-10T09:38:49;15.20;99.90
39899;DHT22;25571;47.876;10.642;2023-05-10T09:41:20;15.30;99.90
39899;DHT22;25571;47.876;10.642;2023-05-10T09:43:47;15.30;99.90
39899;DHT22;25571;47.876;10.642;2023-05-10T09:46:12;15.40;99.90
39899;DHT22;25571;47.876;10.642;2023-05-10T09:48:45;15.30;99.90
39899;DHT22;25571;47.876;10.642;2023-05-10T09:51:22;15.20;99.90
39899;DHT22;25571;47.876;10.642;2023-05-10T09:53:49;15.30;99.90
39899;DHT22;25571;47.876;10.642;2023-05-10T09:56:34;15.30;99.90
39899;DHT22;25571;47.876;10.642;2023-05-10T09:59:04;15.30;99.90
39899;DHT22;25571;47.876;10.642;2023-05-10T10:01:30;15.20;99.90
39899;DHT22;25571;47.876;10.642;2023-05-10T10:03:56;15.10;99.90
39899;DHT22;25571;47.876;10.642;2023-05-10T10:06:23;15.20;99.90
39899;DHT22;25571;47.876;10.642;2023-05-10T10:08:50;15.30;99.90
39899;DHT22;25571;47.876;10.642;2023-05-10T10:11:16;15.30;99.90
39899;DHT22;25571;47.876;10.642;2023-05-10T10:13:42;15.40;99.90
39899;DHT22;25571;47.876;10.642;2023-05-10T10:16:09;15.50;99.90
39899;DHT22;25571;47.876;10.642;2023-05-10T10:18:36;15.60;99.90
39899;DHT22;25571;47.876;10.642;2023-05-10T10:21:07;15.60;99.90
39899;DHT22;25571;47.876;10.642;2023-05-10T10:23:34;15.80;99.90
39899;DHT22;25571;47.876;10.642;2023-05-10T10:26:01;16.10;99.90
39899;DHT22;25571;47.876;10.642;2023-05-10T10:28:48;16.10;99.90
39899;DHT22;25571;47.876;10.642;2023-05-10T10:31:25;16.10;99.90
39899;DHT22;25571;47.876;10.642;2023-05-10T10:34:00;16.10;99.90
39899;DHT22;25571;47.876;10.642;2023-05-10T10:36:27;16.10;99.90
39899;DHT22;25571;47.876;10.642;2023-05-10T10:38:57;16.00;99.90
39899;DHT22;25571;47.876;10.642;2023-05-10T10:55:12;16.10;99.90
39899;DHT22;25571;47.876;10.642;2023-05-10T11:00:44;15.70;99.90
39899;DHT22;25571;47.876;10.642;2023-05-10T11:03:12;15.60;99.90
39899;DHT22;25571;47.876;10.642;2023-05-10T11:05:47;15.40;99.90
39899;DHT22;25571;47.876;10.642;2023-05-10T11:13:47;15.60;99.90
39899;DHT22;25571;47.876;10.642;2023-05-10T11:19:14;15.50;99.90
39899;DHT22;25571;47.876;10.642;2023-05-10T11:21:47;15.60;99.90
39899;DHT22;25571;47.876;10.642;2023-05-10T11:24:15;15.60;99.90
39899;DHT22;25571;47.876;10.642;2023-05-10T11:26:42;15.60;99.90
39899;DHT22;25571;47.876;10.642;2023-05-10T11:29:07;15.60;99.90
39899;DHT22;25571;47.876;10.642;2023-05-10T11:31:33;15.60;99.90
39899;DHT22;25571;47.876;10.642;2023-05-10T11:33:59;15.60;99.90
39899;DHT22;25571;47.876;10.642;2023-05-10T11:36:28;15.70;99.90
39899;DHT22;25571;47.876;10.642;2023-05-10T11:38:55;15.70;99.90
39899;DHT22;25571;47.876;10.642;2023-05-10T11:41:22;15.70;99.90
39899;DHT22;25571;47.876;10.642;2023-05-10T11:43:50;15.70;99.90
39899;DHT22;25571;47.876;10.642;2023-05-10T11:46:19;15.50;99.90
39899;DHT22;25571;47.876;10.642;2023-05-10T11:48:46;15.40;99.90
39899;DHT22;25571;47.876;10.642;2023-05-10T11:51:12;15.30;99.90
39899;DHT22;25571;47.876;10.642;2023-05-10T11:53:38;15.40;99.90
39899;DHT22;25571;47.876;10.642;2023-05-10T11:56:10;15.30;99.90
39899;DHT22;25571;47.876;10.642;2023-05-10T11:58:37;15.30;99.90
39899;DHT22;25571;47.876;10.642;2023-05-10T12:01:04;15.20;99.90
39899;DHT22;25571;47.876;10.642;2023-05-10T12:03:30;15.20;99.90
39899;DHT22;25571;47.876;10.642;2023-05-10T12:05:57;15.20;99.90
39899;DHT22;25571;47.876;10.642;2023-05-10T12:08:24;15.20;99.90
39899;DHT22;25571;47.876;10.642;2023-05-10T12:10:51;15.30;99.90
39899;DHT22;25571;47.876;10.642;2023-05-10T12:13:17;15.30;99.90
39899;DHT22;25571;47.876;10.642;2023-05-10T12:15:43;15.20;99.90
39899;DHT22;25571;47.876;10.642;2023-05-10T12:18:09;15.10;99.90
39899;DHT22;25571;47.876;10.642;2023-05-10T12:20:36;15.00;99.90
39899;DHT22;25571;47.876;10.642;2023-05-10T12:23:02;15.00;99.90
39899;DHT22;25571;47.876;10.642;2023-05-10T12:25:33;15.00;99.90
39899;DHT22;25571;47.876;10.642;2023-05-10T12:28:02;14.90;99.90
39899;DHT22;25571;47.876;10.642;2023-05-10T12:30:29;14.90;99.90
39899;DHT22;25571;47.876;10.642;2023-05-10T12:33:07;14.50;99.90
39899;DHT22;25571;47.876;10.642;2023-05-10T12:35:33;14.10;99.90
39899;DHT22;25571;47.876;10.642;2023-05-10T12:37:59;13.80;99.90
39899;DHT22;25571;47.876;10.642;2023-05-10T12:40:25;13.60;99.90
39899;DHT22;25571;47.876;10.642;2023-05-10T12:42:50;13.50;99.90
39899;DHT22;25571;47.876;10.642;2023-05-10T12:45:17;13.40;99.90
39899;DHT22;25571;47.876;10.642;2023-05-10T12:47:43;13.30;99.90
39899;DHT22;25571;47.876;10.642;2023-05-10T12:50:09;13.30;99.90
39899;DHT22;25571;47.876;10.642;2023-05-10T12:52:35;13.30;99.90
39899;DHT22;25571;47.876;10.642;2023-05-10T12:55:01;13.30;99.90
39899;DHT22;25571;47.876;10.642;2023-05-10T12:57:28;13.40;99.90
39899;DHT22;25571;47.876;10.642;2023-05-10T12:59:54;13.50;99.90
39899;DHT22;25571;47.876;10.642;2023-05-10T13:02:20;13.50;99.90
39899;DHT22;25571;47.876;10.642;2023-05-10T13:04:47;13.50;99.90
39899;DHT22;25571;47.876;10.642;2023-05-10T13:07:12;13.60;99.90
39899;DHT22;25571;47.876;10.642;2023-05-10T13:09:39;13.50;99.90
39899;DHT22;25571;47.876;10.642;2023-05-10T13:12:05;13.50;99.90
39899;DHT22;25571;47.876;10.642;2023-05-10T13:14:31;13.50;99.90
39899;DHT22;25571;47.876;10.642;2023-05-10T13:16:56;13.60;99.90
39899;DHT22;25571;47.876;10.642;2023-05-10T13:19:22;13.50;99.90
39899;DHT22;25571;47.876;10.642;2023-05-10T13:21:48;13.50;99.90
39899;DHT22;25571;47.876;10.642;2023-05-10T13:24:13;13.60;99.90
39899;DHT22;25571;47.876;10.642;2023-05-10T13:26:42;13.60;99.90
39899;DHT22;25571;47.876;10.642;2023-05-10T13:29:08;13.60;99.90
39899;DHT22;25571;47.876;10.642;2023-05-10T13:31:34;13.60;99.90
39899;DHT22;25571;47.876;10.642;2023-05-10T13:34:00;13.60;99.90
39899;DHT22;25571;47.876;10.642;2023-05-10T13:36:25;13.60;99.90
39899;DHT22;25571;47.876;10.642;2023-05-10T13:38:51;13.50;99.90
39899;DHT22;25571;47.876;10.642;2023-05-10T13:41:17;13.60;99.90
39899;DHT22;25571;47.876;10.642;2023-05-10T13:43:43;13.60;99.90
39899;DHT22;25571;47.876;10.642;2023-05-10T13:46:08;13.60;99.90
39899;DHT22;25571;47.876;10.642;2023-05-10T13:48:34;13.60;99.90
39899;DHT22;25571;47.876;10.642;2023-05-10T13:50:59;13.60;99.90
39899;DHT22;25571;47.876;10.642;2023-05-10T13:53:25;13.60;99.90
39899;DHT22;25571;47.876;10.642;2023-05-10T13:55:50;13.60;99.90
39899;DHT22;25571;47.876;10.642;2023-05-10T13:58:16;13.60;99.90
39899;DHT22;25571;47.876;10.642;2023-05-10T14:00:41;13.60;99.90
39899;DHT22;25571;47.876;10.642;2023-05-10T14:03:07;13.70;99.90
39899;DHT22;25571;47.876;10.642;2023-05-10T14:05:36;13.60;99.90
39899;DHT22;25571;47.876;10.642;2023-05-10T14:08:01;13.60;99.90
39899;DHT22;25571;47.876;10.642;2023-05-10T14:10:29;13.70;99.90
39899;DHT22;25571;47.876;10.642;2023-05-10T14:12:55;13.60;99.90
39899;DHT22;25571;47.876;10.642;2023-05-10T14:15:21;13.60;99.90
39899;DHT22;25571;47.876;10.642;2023-05-10T14:17:46;13.60;99.90
39899;DHT22;25571;47.876;10.642;2023-05-10T14:20:12;13.60;99.90
39899;DHT22;25571;47.876;10.642;2023-05-10T14:22:37;13.50;99.90
39899;DHT22;25571;47.876;10.642;2023-05-10T14:25:03;13.60;99.90
39899;DHT22;25571;47.876;10.642;2023-05-10T14:27:29;13.50;99.90
39899;DHT22;25571;47.876;10.642;2023-05-10T14:29:55;13.50;99.90
39899;DHT22;25571;47.876;10.642;2023-05-10T14:32:21;13.50;99.90
39899;DHT22;25571;47.876;10.642;2023-05-10T14:34:46;13.40;99.90
39899;DHT22;25571;47.876;10.642;2023-05-10T14:37:13;13.40;99.90
39899;DHT22;25571;47.876;10.642;2023-05-10T14:39:39;13.30;99.90
39899;DHT22;25571;47.876;10.642;2023-05-10T14:42:05;13.30;99.90
39899;DHT22;25571;47.876;10.642;2023-05-10T14:44:31;13.20;99.90
39899;DHT22;25571;47.876;10.642;2023-05-10T14:46:56;13.20;99.90
39899;DHT22;25571;47.876;10.642;2023-05-10T14:49:22;13.10;99.90
39899;DHT22;25571;47.876;10.642;2023-05-10T14:51:50;13.10;99.90
39899;DHT22;25571;47.876;10.642;2023-05-10T14:54:15;13.00;99.90
39899;DHT22;25571;47.876;10.642;2023-05-10T14:56:41;13.10;99.90
39899;DHT22;25571;47.876;10.642;2023-05-10T14:59:07;13.10;99.90
39899;DHT22;25571;47.876;10.642;2023-05-10T15:01:33;13.10;99.90
39899;DHT22;25571;47.876;10.642;2023-05-10T15:04:02;13.10;99.90
39899;DHT22;25571;47.876;10.642;2023-05-10T15:06:32;13.10;99.90
39899;DHT22;25571;47.876;10.642;2023-05-10T15:08:59;13.20;99.90
39899;DHT22;25571;47.876;10.642;2023-05-10T15:11:25;13.00;99.90
39899;DHT22;25571;47.876;10.642;2023-05-10T15:13:50;13.00;99.90
39899;DHT22;25571;47.876;10.642;2023-05-10T15:16:16;13.00;99.90
39899;DHT22;25571;47.876;10.642;2023-05-10T15:18:41;13.00;99.90
39899;DHT22;25571;47.876;10.642;2023-05-10T15:21:07;13.00;99.90
39899;DHT22;25571;47.876;10.642;2023-05-10T15:23:32;13.10;99.90
39899;DHT22;25571;47.876;10.642;2023-05-10T15:25:58;13.00;99.90
39899;DHT22;25571;47.876;10.642;2023-05-10T15:28:23;13.00;99.90
39899;DHT22;25571;47.876;10.642;2023-05-10T15:30:49;12.90;99.90
39899;DHT22;25571;47.876;10.642;2023-05-10T15:33:15;12.90;99.90
39899;DHT22;25571;47.876;10.642;2023-05-10T15:35:41;12.80;99.90
39899;DHT22;25571;47.876;10.642;2023-05-10T15:38:06;12.80;99.90
39899;DHT22;25571;47.876;10.642;2023-05-10T15:40:32;12.70;99.90
39899;DHT22;25571;47.876;10.642;2023-05-10T15:42:58;12.70;99.90
39899;DHT22;25571;47.876;10.642;2023-05-10T15:45:23;12.70;99.90
39899;DHT22;25571;47.876;10.642;2023-05-10T15:47:49;12.70;99.90
39899;DHT22;25571;47.876;10.642;2023-05-10T15:50:15;12.60;99.90
39899;DHT22;25571;47.876;10.642;2023-05-10T15:52:41;12.60;99.90
39899;DHT22;25571;47.876;10.642;2023-05-10T15:55:08;12.50;99.90
39899;DHT22;25571;47.876;10.642;2023-05-10T15:57:40;12.60;99.90
39899;DHT22;25571;47.876;10.642;2023-05-10T16:00:08;12.50;99.90